sensor_id;sensor_type;location;lat;lon;timestamp;P1;durP1;ratioP1;P2;durP2;ratioP2
24644;SDS011;12780;45.502;9.146;2023-03-01T00:01:22;52.05;;;26.50;;
24644;SDS011;12780;45.502;9.146;2023-03-01T00:03:48;58.22;;;27.83;;
24644;SDS011;12780;45.502;9.146;2023-03-01T00:06:14;57.63;;;27.15;;
24644;SDS011;12780;45.502;9.146;2023-03-01T00:08:40;57.13;;;28.83;;
24644;SDS011;12780;45.502;9.146;2023-03-01T00:11:12;53.33;;;27.23;;
24644;SDS011;12780;45.502;9.146;2023-03-01T00:13:39;51.30;;;25.73;;
24644;SDS011;12780;45.502;9.146;2023-03-01T00:16:06;56.90;;;25.23;;
24644;SDS011;12780;45.502;9.146;2023-03-01T00:18:32;47.97;;;24.17;;
24644;SDS011;12780;45.502;9.146;2023-03-01T00:20:58;72.60;;;31.55;;
24644;SDS011;12780;45.502;9.146;2023-03-01T00:23:24;46.65;;;25.15;;
24644;SDS011;12780;45.502;9.146;2023-03-01T00:25:50;52.58;;;24.95;;
24644;SDS011;12780;45.502;9.146;2023-03-01T00:28:17;48.17;;;25.60;;
24644;SDS011;12780;45.502;9.146;2023-03-01T00:30:43;53.42;;;24.70;;
24644;SDS011;12780;45.502;9.146;2023-03-01T00:33:09;46.78;;;24.30;;
24644;SDS011;12780;45.502;9.146;2023-03-01T00:35:35;46.95;;;25.55;;
24644;SDS011;12780;45.502;9.146;2023-03-01T00:38:01;49.00;;;25.08;;
24644;SDS011;12780;45.502;9.146;2023-03-01T00:40:29;45.03;;;24.33;;
24644;SDS011;12780;45.502;9.146;2023-03-01T00:42:55;42.80;;;23.90;;
24644;SDS011;12780;45.502;9.146;2023-03-01T00:45:21;49.78;;;24.88;;
24644;SDS011;12780;45.502;9.146;2023-03-01T00:47:50;50.17;;;24.48;;
24644;SDS011;12780;45.502;9.146;2023-03-01T00:50:16;45.38;;;24.73;;
24644;SDS011;12780;45.502;9.146;2023-03-01T00:52:42;56.13;;;27.02;;
24644;SDS011;12780;45.502;9.146;2023-03-01T00:55:08;51.55;;;26.40;;
24644;SDS011;12780;45.502;9.146;2023-03-01T00:57:34;47.88;;;26.10;;
24644;SDS011;12780;45.502;9.146;2023-03-01T01:00:00;49.22;;;25.98;;
24644;SDS011;12780;45.502;9.146;2023-03-01T01:02:28;52.30;;;27.35;;
24644;SDS011;12780;45.502;9.146;2023-03-01T01:04:54;64.18;;;26.73;;
24644;SDS011;12780;45.502;9.146;2023-03-01T01:07:20;70.82;;;26.83;;
24644;SDS011;12780;45.502;9.146;2023-03-01T01:09:46;51.72;;;24.50;;
24644;SDS011;12780;45.502;9.146;2023-03-01T01:12:12;53.08;;;25.50;;
24644;SDS011;12780;45.502;9.146;2023-03-01T01:14:38;50.38;;;24.90;;
24644;SDS011;12780;45.502;9.146;2023-03-01T01:17:04;62.60;;;26.52;;
24644;SDS011;12780;45.502;9.146;2023-03-01T01:19:30;54.72;;;24.83;;
24644;SDS011;12780;45.502;9.146;2023-03-01T01:21:56;48.22;;;25.67;;
24644;SDS011;12780;45.502;9.146;2023-03-01T01:24:22;54.25;;;24.92;;
24644;SDS011;12780;45.502;9.146;2023-03-01T01:26:48;59.78;;;26.35;;
24644;SDS011;12780;45.502;9.146;2023-03-01T01:29:14;62.53;;;25.98;;
24644;SDS011;12780;45.502;9.146;2023-03-01T01:31:41;48.80;;;25.60;;
24644;SDS011;12780;45.502;9.146;2023-03-01T01:34:09;54.00;;;25.48;;
24644;SDS011;12780;45.502;9.146;2023-03-01T01:36:38;52.47;;;24.20;;
24644;SDS011;12780;45.502;9.146;2023-03-01T01:39:04;58.35;;;25.38;;
24644;SDS011;12780;45.502;9.146;2023-03-01T01:41:30;51.40;;;24.08;;
24644;SDS011;12780;45.502;9.146;2023-03-01T01:44:14;51.22;;;24.90;;
24644;SDS011;12780;45.502;9.146;2023-03-01T01:49:16;48.30;;;24.83;;
24644;SDS011;12780;45.502;9.146;2023-03-01T01:51:43;47.28;;;25.13;;
24644;SDS011;12780;45.502;9.146;2023-03-01T01:54:14;46.00;;;24.90;;
24644;SDS011;12780;45.502;9.146;2023-03-01T01:56:42;43.45;;;23.73;;
24644;SDS011;12780;45.502;9.146;2023-03-01T01:59:10;52.55;;;24.77;;
24644;SDS011;12780;45.502;9.146;2023-03-01T02:01:36;54.63;;;24.27;;
24644;SDS011;12780;45.502;9.146;2023-03-01T02:04:03;44.63;;;24.50;;
24644;SDS011;12780;45.502;9.146;2023-03-01T02:06:32;48.92;;;24.55;;
24644;SDS011;12780;45.502;9.146;2023-03-01T02:09:05;54.30;;;25.67;;
24644;SDS011;12780;45.502;9.146;2023-03-01T02:11:32;52.25;;;26.00;;
24644;SDS011;12780;45.502;9.146;2023-03-01T02:13:59;46.95;;;25.50;;
24644;SDS011;12780;45.502;9.146;2023-03-01T02:16:25;45.58;;;25.30;;
24644;SDS011;12780;45.502;9.146;2023-03-01T02:18:51;51.88;;;25.60;;
24644;SDS011;12780;45.502;9.146;2023-03-01T02:23:51;52.17;;;24.27;;
24644;SDS011;12780;45.502;9.146;2023-03-01T02:26:59;45.00;;;24.42;;
24644;SDS011;12780;45.502;9.146;2023-03-01T02:29:06;47.33;;;24.30;;
24644;SDS011;12780;45.502;9.146;2023-03-01T02:31:32;45.70;;;24.00;;
24644;SDS011;12780;45.502;9.146;2023-03-01T02:34:08;44.60;;;24.48;;
24644;SDS011;12780;45.502;9.146;2023-03-01T02:36:36;48.83;;;24.52;;
24644;SDS011;12780;45.502;9.146;2023-03-01T02:39:03;43.35;;;24.33;;
24644;SDS011;12780;45.502;9.146;2023-03-01T02:41:31;46.97;;;25.10;;
24644;SDS011;12780;45.502;9.146;2023-03-01T02:43:59;48.08;;;24.75;;
24644;SDS011;12780;45.502;9.146;2023-03-01T02:46:25;43.13;;;24.52;;
24644;SDS011;12780;45.502;9.146;2023-03-01T02:48:52;45.38;;;24.13;;
24644;SDS011;12780;45.502;9.146;2023-03-01T02:54:23;46.78;;;24.27;;
24644;SDS011;12780;45.502;9.146;2023-03-01T02:56:40;44.65;;;23.88;;
24644;SDS011;12780;45.502;9.146;2023-03-01T02:59:06;44.83;;;24.17;;
24644;SDS011;12780;45.502;9.146;2023-03-01T03:01:33;49.38;;;23.65;;
24644;SDS011;12780;45.502;9.146;2023-03-01T03:04:11;44.15;;;22.98;;
24644;SDS011;12780;45.502;9.146;2023-03-01T03:06:42;47.95;;;24.48;;
24644;SDS011;12780;45.502;9.146;2023-03-01T03:09:08;44.42;;;24.08;;
24644;SDS011;12780;45.502;9.146;2023-03-01T03:11:34;42.40;;;23.05;;
24644;SDS011;12780;45.502;9.146;2023-03-01T03:14:01;47.30;;;23.73;;
24644;SDS011;12780;45.502;9.146;2023-03-01T03:16:27;44.15;;;23.30;;
24644;SDS011;12780;45.502;9.146;2023-03-01T03:18:54;45.85;;;23.48;;
24644;SDS011;12780;45.502;9.146;2023-03-01T03:21:29;43.50;;;22.50;;
24644;SDS011;12780;45.502;9.146;2023-03-01T03:23:55;43.65;;;22.98;;
24644;SDS011;12780;45.502;9.146;2023-03-01T03:26:22;50.40;;;23.42;;
24644;SDS011;12780;45.502;9.146;2023-03-01T03:28:48;45.65;;;23.80;;
24644;SDS011;12780;45.502;9.146;2023-03-01T03:31:14;42.33;;;22.70;;
24644;SDS011;12780;45.502;9.146;2023-03-01T03:33:40;44.72;;;22.05;;
24644;SDS011;12780;45.502;9.146;2023-03-01T03:36:06;46.55;;;23.58;;
24644;SDS011;12780;45.502;9.146;2023-03-01T03:38:37;44.25;;;24.00;;
24644;SDS011;12780;45.502;9.146;2023-03-01T03:41:05;45.03;;;23.48;;
24644;SDS011;12780;45.502;9.146;2023-03-01T03:43:32;52.47;;;23.25;;
24644;SDS011;12780;45.502;9.146;2023-03-01T03:45:59;45.20;;;22.33;;
24644;SDS011;12780;45.502;9.146;2023-03-01T03:48:25;43.65;;;22.73;;
24644;SDS011;12780;45.502;9.146;2023-03-01T03:50:52;45.30;;;23.13;;
24644;SDS011;12780;45.502;9.146;2023-03-01T03:53:19;48.83;;;22.75;;
24644;SDS011;12780;45.502;9.146;2023-03-01T03:55:45;46.10;;;22.33;;
24644;SDS011;12780;45.502;9.146;2023-03-01T03:58:14;47.30;;;24.13;;
24644;SDS011;12780;45.502;9.146;2023-03-01T04:00:42;45.65;;;23.30;;
24644;SDS011;12780;45.502;9.146;2023-03-01T04:03:08;43.15;;;23.15;;
24644;SDS011;12780;45.502;9.146;2023-03-01T04:05:37;42.53;;;22.00;;
24644;SDS011;12780;45.502;9.146;2023-03-01T04:08:03;42.97;;;23.05;;
24644;SDS011;12780;45.502;9.146;2023-03-01T04:10:41;53.20;;;24.05;;
24644;SDS011;12780;45.502;9.146;2023-03-01T04:13:09;44.75;;;23.20;;
24644;SDS011;12780;45.502;9.146;2023-03-01T04:15:36;45.40;;;22.85;;
24644;SDS011;12780;45.502;9.146;2023-03-01T04:18:02;45.75;;;22.92;;
24644;SDS011;12780;45.502;9.146;2023-03-01T04:20:30;43.20;;;22.60;;
24644;SDS011;12780;45.502;9.146;2023-03-01T04:25:22;49.75;;;25.02;;
24644;SDS011;12780;45.502;9.146;2023-03-01T04:27:48;49.55;;;26.05;;
24644;SDS011;12780;45.502;9.146;2023-03-01T04:30:15;47.45;;;23.90;;
24644;SDS011;12780;45.502;9.146;2023-03-01T04:32:41;47.47;;;24.27;;
24644;SDS011;12780;45.502;9.146;2023-03-01T04:35:07;45.80;;;24.08;;
24644;SDS011;12780;45.502;9.146;2023-03-01T04:37:33;43.83;;;23.77;;
24644;SDS011;12780;45.502;9.146;2023-03-01T04:40:00;46.08;;;23.77;;
24644;SDS011;12780;45.502;9.146;2023-03-01T04:42:26;51.33;;;24.30;;
24644;SDS011;12780;45.502;9.146;2023-03-01T04:44:53;45.60;;;24.23;;
24644;SDS011;12780;45.502;9.146;2023-03-01T04:47:19;46.70;;;23.88;;
24644;SDS011;12780;45.502;9.146;2023-03-01T04:49:45;45.03;;;24.65;;
24644;SDS011;12780;45.502;9.146;2023-03-01T04:52:11;51.17;;;25.15;;
24644;SDS011;12780;45.502;9.146;2023-03-01T04:54:37;48.80;;;24.90;;
24644;SDS011;12780;45.502;9.146;2023-03-01T04:57:03;46.03;;;24.58;;
24644;SDS011;12780;45.502;9.146;2023-03-01T04:59:29;49.30;;;24.73;;
24644;SDS011;12780;45.502;9.146;2023-03-01T05:01:55;52.60;;;23.60;;
24644;SDS011;12780;45.502;9.146;2023-03-01T05:04:22;42.50;;;23.13;;
24644;SDS011;12780;45.502;9.146;2023-03-01T05:06:48;45.97;;;23.40;;
24644;SDS011;12780;45.502;9.146;2023-03-01T05:09:14;42.15;;;22.73;;
24644;SDS011;12780;45.502;9.146;2023-03-01T05:11:40;46.70;;;24.02;;
24644;SDS011;12780;45.502;9.146;2023-03-01T05:14:07;42.83;;;22.95;;
24644;SDS011;12780;45.502;9.146;2023-03-01T05:16:34;47.88;;;23.80;;
24644;SDS011;12780;45.502;9.146;2023-03-01T05:19:01;41.58;;;22.58;;
24644;SDS011;12780;45.502;9.146;2023-03-01T05:21:36;44.50;;;24.00;;
24644;SDS011;12780;45.502;9.146;2023-03-01T05:24:22;48.78;;;24.42;;
24644;SDS011;12780;45.502;9.146;2023-03-01T05:26:48;42.63;;;23.27;;
24644;SDS011;12780;45.502;9.146;2023-03-01T05:29:14;45.17;;;24.13;;
24644;SDS011;12780;45.502;9.146;2023-03-01T05:31:40;45.45;;;23.33;;
24644;SDS011;12780;45.502;9.146;2023-03-01T05:34:06;44.40;;;23.85;;
24644;SDS011;12780;45.502;9.146;2023-03-01T05:36:32;46.58;;;23.70;;
24644;SDS011;12780;45.502;9.146;2023-03-01T05:38:59;44.13;;;23.38;;
24644;SDS011;12780;45.502;9.146;2023-03-01T05:41:25;46.10;;;24.50;;
24644;SDS011;12780;45.502;9.146;2023-03-01T05:43:51;46.50;;;23.30;;
24644;SDS011;12780;45.502;9.146;2023-03-01T05:46:17;44.05;;;22.85;;
24644;SDS011;12780;45.502;9.146;2023-03-01T05:48:43;44.55;;;22.70;;
24644;SDS011;12780;45.502;9.146;2023-03-01T05:51:09;46.78;;;23.70;;
24644;SDS011;12780;45.502;9.146;2023-03-01T05:53:36;44.42;;;23.52;;
24644;SDS011;12780;45.502;9.146;2023-03-01T05:56:03;46.67;;;24.38;;
24644;SDS011;12780;45.502;9.146;2023-03-01T05:58:29;49.80;;;24.98;;
24644;SDS011;12780;45.502;9.146;2023-03-01T06:00:55;47.30;;;23.65;;
24644;SDS011;12780;45.502;9.146;2023-03-01T06:03:21;48.95;;;22.77;;
24644;SDS011;12780;45.502;9.146;2023-03-01T06:05:47;46.10;;;23.25;;
24644;SDS011;12780;45.502;9.146;2023-03-01T06:08:13;40.25;;;22.67;;
24644;SDS011;12780;45.502;9.146;2023-03-01T06:10:39;49.88;;;23.98;;
24644;SDS011;12780;45.502;9.146;2023-03-01T06:13:06;45.47;;;23.33;;
24644;SDS011;12780;45.502;9.146;2023-03-01T06:15:32;50.22;;;23.65;;
24644;SDS011;12780;45.502;9.146;2023-03-01T06:17:58;42.17;;;22.40;;
24644;SDS011;12780;45.502;9.146;2023-03-01T06:20:25;44.15;;;23.15;;
24644;SDS011;12780;45.502;9.146;2023-03-01T06:22:51;45.33;;;24.33;;
24644;SDS011;12780;45.502;9.146;2023-03-01T06:25:19;42.88;;;23.67;;
24644;SDS011;12780;45.502;9.146;2023-03-01T06:27:45;40.70;;;23.15;;
24644;SDS011;12780;45.502;9.146;2023-03-01T06:30:12;44.00;;;23.60;;
24644;SDS011;12780;45.502;9.146;2023-03-01T06:32:39;44.72;;;24.23;;
24644;SDS011;12780;45.502;9.146;2023-03-01T06:35:08;42.03;;;23.17;;
24644;SDS011;12780;45.502;9.146;2023-03-01T06:37:35;46.08;;;24.25;;
24644;SDS011;12780;45.502;9.146;2023-03-01T06:40:02;50.90;;;24.23;;
24644;SDS011;12780;45.502;9.146;2023-03-01T06:42:33;47.97;;;24.80;;
24644;SDS011;12780;45.502;9.146;2023-03-01T06:44:58;44.53;;;23.92;;
24644;SDS011;12780;45.502;9.146;2023-03-01T06:47:25;53.25;;;25.55;;
24644;SDS011;12780;45.502;9.146;2023-03-01T06:49:51;45.80;;;25.55;;
24644;SDS011;12780;45.502;9.146;2023-03-01T06:52:17;44.03;;;24.92;;
24644;SDS011;12780;45.502;9.146;2023-03-01T06:54:43;46.40;;;23.90;;
24644;SDS011;12780;45.502;9.146;2023-03-01T06:57:09;45.83;;;25.42;;
24644;SDS011;12780;45.502;9.146;2023-03-01T06:59:35;49.83;;;25.63;;
24644;SDS011;12780;45.502;9.146;2023-03-01T07:02:01;46.35;;;24.73;;
24644;SDS011;12780;45.502;9.146;2023-03-01T07:04:27;48.25;;;25.75;;
24644;SDS011;12780;45.502;9.146;2023-03-01T07:06:56;49.20;;;25.45;;
24644;SDS011;12780;45.502;9.146;2023-03-01T07:09:22;52.72;;;25.98;;
24644;SDS011;12780;45.502;9.146;2023-03-01T07:11:48;46.40;;;24.38;;
24644;SDS011;12780;45.502;9.146;2023-03-01T07:14:15;53.55;;;24.95;;
24644;SDS011;12780;45.502;9.146;2023-03-01T07:16:41;47.08;;;24.33;;
24644;SDS011;12780;45.502;9.146;2023-03-01T07:19:07;51.45;;;25.55;;
24644;SDS011;12780;45.502;9.146;2023-03-01T07:21:33;45.15;;;24.52;;
24644;SDS011;12780;45.502;9.146;2023-03-01T07:23:59;48.08;;;24.88;;
24644;SDS011;12780;45.502;9.146;2023-03-01T07:26:25;46.40;;;24.77;;
24644;SDS011;12780;45.502;9.146;2023-03-01T07:28:51;51.75;;;27.38;;
24644;SDS011;12780;45.502;9.146;2023-03-01T07:31:17;51.30;;;27.55;;
24644;SDS011;12780;45.502;9.146;2023-03-01T07:33:43;48.83;;;26.38;;
24644;SDS011;12780;45.502;9.146;2023-03-01T07:36:09;55.70;;;25.00;;
24644;SDS011;12780;45.502;9.146;2023-03-01T07:38:35;46.63;;;25.67;;
24644;SDS011;12780;45.502;9.146;2023-03-01T07:41:02;44.80;;;24.27;;
24644;SDS011;12780;45.502;9.146;2023-03-01T07:43:29;48.90;;;24.83;;
24644;SDS011;12780;45.502;9.146;2023-03-01T07:45:59;49.72;;;23.85;;
24644;SDS011;12780;45.502;9.146;2023-03-01T07:48:25;56.58;;;25.75;;
24644;SDS011;12780;45.502;9.146;2023-03-01T07:50:51;50.38;;;24.67;;
24644;SDS011;12780;45.502;9.146;2023-03-01T07:53:17;51.22;;;23.98;;
24644;SDS011;12780;45.502;9.146;2023-03-01T07:55:43;49.78;;;23.90;;
24644;SDS011;12780;45.502;9.146;2023-03-01T07:58:09;54.10;;;24.65;;
24644;SDS011;12780;45.502;9.146;2023-03-01T08:00:35;45.10;;;23.80;;
24644;SDS011;12780;45.502;9.146;2023-03-01T08:03:01;45.15;;;24.13;;
24644;SDS011;12780;45.502;9.146;2023-03-01T08:05:28;48.78;;;23.40;;
24644;SDS011;12780;45.502;9.146;2023-03-01T08:07:54;44.33;;;23.40;;
24644;SDS011;12780;45.502;9.146;2023-03-01T08:10:20;48.33;;;22.73;;
24644;SDS011;12780;45.502;9.146;2023-03-01T08:12:46;46.88;;;21.58;;
24644;SDS011;12780;45.502;9.146;2023-03-01T08:15:12;47.33;;;23.30;;
24644;SDS011;12780;45.502;9.146;2023-03-01T08:17:38;48.55;;;23.83;;
24644;SDS011;12780;45.502;9.146;2023-03-01T08:20:04;41.00;;;21.95;;
24644;SDS011;12780;45.502;9.146;2023-03-01T08:22:31;40.97;;;21.05;;
24644;SDS011;12780;45.502;9.146;2023-03-01T08:24:58;43.20;;;20.70;;
24644;SDS011;12780;45.502;9.146;2023-03-01T08:27:24;42.08;;;22.23;;
24644;SDS011;12780;45.502;9.146;2023-03-01T08:29:50;44.40;;;22.05;;
24644;SDS011;12780;45.502;9.146;2023-03-01T08:32:16;44.00;;;21.40;;
24644;SDS011;12780;45.502;9.146;2023-03-01T08:34:42;42.60;;;19.23;;
24644;SDS011;12780;45.502;9.146;2023-03-01T08:37:08;30.38;;;17.02;;
24644;SDS011;12780;45.502;9.146;2023-03-01T08:39:34;36.33;;;15.85;;
24644;SDS011;12780;45.502;9.146;2023-03-01T08:42:00;32.90;;;17.08;;
24644;SDS011;12780;45.502;9.146;2023-03-01T08:44:26;34.05;;;17.33;;
24644;SDS011;12780;45.502;9.146;2023-03-01T08:46:52;34.45;;;17.77;;
24644;SDS011;12780;45.502;9.146;2023-03-01T08:49:20;36.80;;;18.38;;
24644;SDS011;12780;45.502;9.146;2023-03-01T08:51:47;38.13;;;18.45;;
24644;SDS011;12780;45.502;9.146;2023-03-01T08:54:14;34.28;;;17.60;;
24644;SDS011;12780;45.502;9.146;2023-03-01T08:56:40;31.92;;;17.13;;
24644;SDS011;12780;45.502;9.146;2023-03-01T08:59:06;33.83;;;17.67;;
24644;SDS011;12780;45.502;9.146;2023-03-01T09:01:33;36.42;;;18.08;;
24644;SDS011;12780;45.502;9.146;2023-03-01T09:03:59;39.13;;;17.25;;
24644;SDS011;12780;45.502;9.146;2023-03-01T09:06:25;31.92;;;16.95;;
24644;SDS011;12780;45.502;9.146;2023-03-01T09:08:51;36.45;;;16.98;;
24644;SDS011;12780;45.502;9.146;2023-03-01T09:11:19;29.25;;;16.65;;
24644;SDS011;12780;45.502;9.146;2023-03-01T09:13:46;36.28;;;16.58;;
24644;SDS011;12780;45.502;9.146;2023-03-01T09:16:13;34.38;;;16.88;;
24644;SDS011;12780;45.502;9.146;2023-03-01T09:18:39;36.85;;;17.05;;
24644;SDS011;12780;45.502;9.146;2023-03-01T09:23:35;33.22;;;17.13;;
24644;SDS011;12780;45.502;9.146;2023-03-01T09:26:07;33.85;;;17.75;;
24644;SDS011;12780;45.502;9.146;2023-03-01T09:28:34;36.22;;;17.75;;
24644;SDS011;12780;45.502;9.146;2023-03-01T09:31:00;33.65;;;18.63;;
24644;SDS011;12780;45.502;9.146;2023-03-01T09:33:27;37.97;;;18.92;;
24644;SDS011;12780;45.502;9.146;2023-03-01T09:36:03;31.02;;;17.75;;
24644;SDS011;12780;45.502;9.146;2023-03-01T09:38:30;37.47;;;19.55;;
24644;SDS011;12780;45.502;9.146;2023-03-01T09:40:56;35.28;;;17.90;;
24644;SDS011;12780;45.502;9.146;2023-03-01T09:44:05;29.98;;;16.33;;
24644;SDS011;12780;45.502;9.146;2023-03-01T09:46:12;33.83;;;17.23;;
24644;SDS011;12780;45.502;9.146;2023-03-01T09:48:46;37.25;;;17.23;;
24644;SDS011;12780;45.502;9.146;2023-03-01T09:51:16;31.20;;;15.83;;
24644;SDS011;12780;45.502;9.146;2023-03-01T09:53:43;30.00;;;16.35;;
24644;SDS011;12780;45.502;9.146;2023-03-01T10:06:51;31.35;;;16.42;;
24644;SDS011;12780;45.502;9.146;2023-03-01T10:09:23;32.63;;;15.20;;
24644;SDS011;12780;45.502;9.146;2023-03-01T10:11:50;27.30;;;15.07;;
24644;SDS011;12780;45.502;9.146;2023-03-01T10:14:33;34.85;;;14.15;;
24644;SDS011;12780;45.502;9.146;2023-03-01T10:17:18;30.00;;;13.95;;
24644;SDS011;12780;45.502;9.146;2023-03-01T10:19:46;25.63;;;13.15;;
24644;SDS011;12780;45.502;9.146;2023-03-01T10:22:19;28.58;;;13.38;;
24644;SDS011;12780;45.502;9.146;2023-03-01T10:24:48;28.85;;;13.60;;
24644;SDS011;12780;45.502;9.146;2023-03-01T10:27:25;32.05;;;13.07;;
24644;SDS011;12780;45.502;9.146;2023-03-01T10:32:23;41.05;;;14.10;;
24644;SDS011;12780;45.502;9.146;2023-03-01T10:34:50;30.27;;;14.55;;
24644;SDS011;12780;45.502;9.146;2023-03-01T10:37:17;29.27;;;13.75;;
24644;SDS011;12780;45.502;9.146;2023-03-01T10:39:55;28.70;;;13.95;;
24644;SDS011;12780;45.502;9.146;2023-03-01T10:42:29;31.55;;;15.18;;
24644;SDS011;12780;45.502;9.146;2023-03-01T10:44:56;35.13;;;16.48;;
24644;SDS011;12780;45.502;9.146;2023-03-01T10:47:23;27.63;;;14.98;;
24644;SDS011;12780;45.502;9.146;2023-03-01T10:50:00;33.20;;;16.20;;
24644;SDS011;12780;45.502;9.146;2023-03-01T10:52:34;31.92;;;16.65;;
24644;SDS011;12780;45.502;9.146;2023-03-01T10:55:02;36.75;;;18.90;;
24644;SDS011;12780;45.502;9.146;2023-03-01T10:57:46;35.30;;;18.00;;
24644;SDS011;12780;45.502;9.146;2023-03-01T11:02:38;31.77;;;15.68;;
24644;SDS011;12780;45.502;9.146;2023-03-01T11:05:26;29.15;;;16.17;;
24644;SDS011;12780;45.502;9.146;2023-03-01T11:10:29;31.05;;;17.77;;
24644;SDS011;12780;45.502;9.146;2023-03-01T11:13:07;35.50;;;17.40;;
24644;SDS011;12780;45.502;9.146;2023-03-01T11:15:33;30.88;;;16.85;;
24644;SDS011;12780;45.502;9.146;2023-03-01T11:18:00;32.17;;;15.90;;
24644;SDS011;12780;45.502;9.146;2023-03-01T11:20:29;30.35;;;15.60;;
24644;SDS011;12780;45.502;9.146;2023-03-01T11:22:58;35.10;;;16.23;;
24644;SDS011;12780;45.502;9.146;2023-03-01T11:25:26;33.38;;;16.75;;
24644;SDS011;12780;45.502;9.146;2023-03-01T11:27:53;28.48;;;16.45;;
24644;SDS011;12780;45.502;9.146;2023-03-01T11:32:47;31.20;;;17.35;;
24644;SDS011;12780;45.502;9.146;2023-03-01T11:35:25;32.33;;;17.00;;
24644;SDS011;12780;45.502;9.146;2023-03-01T11:40:29;29.70;;;16.17;;
24644;SDS011;12780;45.502;9.146;2023-03-01T11:45:43;34.33;;;16.83;;
24644;SDS011;12780;45.502;9.146;2023-03-01T11:50:56;31.83;;;16.85;;
24644;SDS011;12780;45.502;9.146;2023-03-01T12:09:02;33.95;;;17.45;;
24644;SDS011;12780;45.502;9.146;2023-03-01T12:11:37;31.30;;;17.20;;
24644;SDS011;12780;45.502;9.146;2023-03-01T12:17:00;33.97;;;18.35;;
24644;SDS011;12780;45.502;9.146;2023-03-01T12:22:29;34.47;;;17.30;;
24644;SDS011;12780;45.502;9.146;2023-03-01T12:27:41;33.47;;;17.45;;
24644;SDS011;12780;45.502;9.146;2023-03-01T12:30:17;32.47;;;17.23;;
24644;SDS011;12780;45.502;9.146;2023-03-01T12:32:49;36.90;;;18.08;;
24644;SDS011;12780;45.502;9.146;2023-03-01T12:40:22;39.58;;;18.05;;
24644;SDS011;12780;45.502;9.146;2023-03-01T12:48:31;32.05;;;17.48;;
24644;SDS011;12780;45.502;9.146;2023-03-01T12:50:53;29.23;;;17.08;;
24644;SDS011;12780;45.502;9.146;2023-03-01T12:53:24;31.80;;;17.92;;
24644;SDS011;12780;45.502;9.146;2023-03-01T12:55:50;35.38;;;17.95;;
24644;SDS011;12780;45.502;9.146;2023-03-01T13:01:08;31.90;;;17.52;;
24644;SDS011;12780;45.502;9.146;2023-03-01T13:09:11;37.78;;;17.85;;
24644;SDS011;12780;45.502;9.146;2023-03-01T13:11:41;32.17;;;18.73;;
24644;SDS011;12780;45.502;9.146;2023-03-01T13:16:48;33.47;;;18.73;;
24644;SDS011;12780;45.502;9.146;2023-03-01T13:21:47;37.47;;;20.17;;
24644;SDS011;12780;45.502;9.146;2023-03-01T13:24:24;34.45;;;19.23;;
24644;SDS011;12780;45.502;9.146;2023-03-01T13:29:45;35.42;;;20.05;;
24644;SDS011;12780;45.502;9.146;2023-03-01T13:34:45;34.37;;;19.00;;
24644;SDS011;12780;45.502;9.146;2023-03-01T13:37:20;34.22;;;19.30;;
24644;SDS011;12780;45.502;9.146;2023-03-01T13:39:46;35.45;;;18.20;;
24644;SDS011;12780;45.502;9.146;2023-03-01T13:42:31;33.33;;;19.63;;
24644;SDS011;12780;45.502;9.146;2023-03-01T13:44:58;36.88;;;19.83;;
24644;SDS011;12780;45.502;9.146;2023-03-01T13:47:24;33.20;;;19.73;;
24644;SDS011;12780;45.502;9.146;2023-03-01T13:49:55;37.15;;;20.02;;
24644;SDS011;12780;45.502;9.146;2023-03-01T13:54:57;36.28;;;18.95;;
24644;SDS011;12780;45.502;9.146;2023-03-01T13:57:30;36.63;;;19.33;;
24644;SDS011;12780;45.502;9.146;2023-03-01T13:59:58;38.40;;;18.95;;
24644;SDS011;12780;45.502;9.146;2023-03-01T14:02:24;38.60;;;18.05;;
24644;SDS011;12780;45.502;9.146;2023-03-01T14:04:59;35.35;;;19.05;;
24644;SDS011;12780;45.502;9.146;2023-03-01T14:07:26;35.15;;;18.75;;
24644;SDS011;12780;45.502;9.146;2023-03-01T14:10:04;35.20;;;18.55;;
24644;SDS011;12780;45.502;9.146;2023-03-01T14:18:20;35.63;;;18.95;;
24644;SDS011;12780;45.502;9.146;2023-03-01T14:20:48;35.22;;;18.67;;
24644;SDS011;12780;45.502;9.146;2023-03-01T14:23:19;36.88;;;18.88;;
24644;SDS011;12780;45.502;9.146;2023-03-01T14:25:46;35.00;;;18.48;;
24644;SDS011;12780;45.502;9.146;2023-03-01T14:30:43;35.20;;;19.17;;
24644;SDS011;12780;45.502;9.146;2023-03-01T14:33:20;37.08;;;19.48;;
24644;SDS011;12780;45.502;9.146;2023-03-01T14:38:46;37.03;;;19.55;;
24644;SDS011;12780;45.502;9.146;2023-03-01T14:41:16;37.45;;;19.00;;
24644;SDS011;12780;45.502;9.146;2023-03-01T14:43:47;34.85;;;18.80;;
24644;SDS011;12780;45.502;9.146;2023-03-01T14:46:32;36.45;;;19.23;;
24644;SDS011;12780;45.502;9.146;2023-03-01T14:49:03;33.65;;;18.90;;
24644;SDS011;12780;45.502;9.146;2023-03-01T14:51:30;34.72;;;18.63;;
24644;SDS011;12780;45.502;9.146;2023-03-01T14:53:56;34.70;;;18.65;;
24644;SDS011;12780;45.502;9.146;2023-03-01T14:56:22;35.08;;;17.60;;
24644;SDS011;12780;45.502;9.146;2023-03-01T14:58:52;36.92;;;18.13;;
24644;SDS011;12780;45.502;9.146;2023-03-01T15:01:18;35.13;;;19.13;;
24644;SDS011;12780;45.502;9.146;2023-03-01T15:03:48;36.13;;;19.10;;
24644;SDS011;12780;45.502;9.146;2023-03-01T15:06:16;41.97;;;19.30;;
24644;SDS011;12780;45.502;9.146;2023-03-01T15:08:44;42.55;;;18.60;;
24644;SDS011;12780;45.502;9.146;2023-03-01T15:11:26;36.33;;;18.55;;
24644;SDS011;12780;45.502;9.146;2023-03-01T15:13:53;36.13;;;19.10;;
24644;SDS011;12780;45.502;9.146;2023-03-01T15:16:21;33.72;;;19.08;;
24644;SDS011;12780;45.502;9.146;2023-03-01T15:18:49;38.03;;;19.48;;
24644;SDS011;12780;45.502;9.146;2023-03-01T15:21:20;30.13;;;18.13;;
24644;SDS011;12780;45.502;9.146;2023-03-01T15:23:54;35.47;;;18.55;;
24644;SDS011;12780;45.502;9.146;2023-03-01T15:26:22;32.97;;;18.33;;
24644;SDS011;12780;45.502;9.146;2023-03-01T15:28:49;37.08;;;18.15;;
24644;SDS011;12780;45.502;9.146;2023-03-01T15:33:42;35.60;;;17.98;;
24644;SDS011;12780;45.502;9.146;2023-03-01T15:38:57;45.10;;;19.98;;
24644;SDS011;12780;45.502;9.146;2023-03-01T15:41:32;34.15;;;18.13;;
24644;SDS011;12780;45.502;9.146;2023-03-01T15:43:58;35.83;;;18.05;;
24644;SDS011;12780;45.502;9.146;2023-03-01T15:46:26;50.55;;;28.48;;
24644;SDS011;12780;45.502;9.146;2023-03-01T15:48:56;37.00;;;19.15;;
24644;SDS011;12780;45.502;9.146;2023-03-01T15:51:27;36.42;;;18.60;;
24644;SDS011;12780;45.502;9.146;2023-03-01T15:53:54;33.00;;;17.85;;
24644;SDS011;12780;45.502;9.146;2023-03-01T15:56:20;35.15;;;18.13;;
24644;SDS011;12780;45.502;9.146;2023-03-01T15:58:46;34.53;;;18.15;;
24644;SDS011;12780;45.502;9.146;2023-03-01T16:01:13;36.92;;;18.30;;
24644;SDS011;12780;45.502;9.146;2023-03-01T16:03:40;37.25;;;18.25;;
24644;SDS011;12780;45.502;9.146;2023-03-01T16:06:08;36.63;;;18.77;;
24644;SDS011;12780;45.502;9.146;2023-03-01T16:08:34;33.65;;;18.60;;
24644;SDS011;12780;45.502;9.146;2023-03-01T16:11:00;36.22;;;19.15;;
24644;SDS011;12780;45.502;9.146;2023-03-01T16:13:30;33.20;;;18.00;;
24644;SDS011;12780;45.502;9.146;2023-03-01T16:15:56;38.88;;;17.90;;
24644;SDS011;12780;45.502;9.146;2023-03-01T16:18:22;38.00;;;18.88;;
24644;SDS011;12780;45.502;9.146;2023-03-01T16:20:48;41.45;;;20.27;;